createdAt,value
2023-05-24T00:02:01.587Z,101477.91
2023-05-24T00:04:28.230Z,101467.56
2023-05-24T00:06:55.185Z,101471.38
2023-05-24T00:09:22.237Z,101473.31
2023-05-24T00:11:49.235Z,101466.44
2023-05-24T00:14:17.569Z,101469.13
2023-05-24T00:16:44.508Z,101466.28
2023-05-24T00:19:11.465Z,101465.28
2023-05-24T00:21:38.528Z,101466.28
2023-05-24T00:24:05.485Z,101455.84
2023-05-24T00:26:32.170Z,101456.03
2023-05-24T00:28:58.888Z,101449.72
2023-05-24T00:31:26.909Z,101448.47
2023-05-24T00:33:53.535Z,101442.06
2023-05-24T00:36:20.378Z,101448.84
2023-05-24T00:38:47.339Z,101447.69
2023-05-24T00:41:13.976Z,101449.81
2023-05-24T00:43:40.828Z,101442.91
2023-05-24T00:46:16.167Z,101447.53
2023-05-24T00:48:45.316Z,101448.19
2023-05-24T00:51:13.338Z,101446.09
2023-05-24T00:53:41.963Z,101456.50
2023-05-24T00:56:10.139Z,101454.16
2023-05-24T00:58:37.157Z,101460.22
2023-05-24T01:01:04.274Z,101453.41
2023-05-24T01:03:31.287Z,101456.16
2023-05-24T01:06:02.178Z,101453.22
2023-05-24T01:08:57.011Z,101453.84
2023-05-24T01:11:31.072Z,101453.88
2023-05-24T01:14:07.004Z,101452.75
2023-05-24T01:16:51.929Z,101458.19
2023-05-24T01:19:40.363Z,101442.97
2023-05-24T01:22:21.391Z,101447.28
2023-05-24T01:24:59.132Z,101449.41
2023-05-24T01:27:28.995Z,101444.88
2023-05-24T01:29:56.636Z,101452.81
2023-05-24T01:32:23.803Z,101444.41
2023-05-24T01:34:50.471Z,101438.44
2023-05-24T01:37:17.249Z,101435.22
2023-05-24T01:39:43.907Z,101446.81
2023-05-24T01:42:23.586Z,101445.41
2023-05-24T01:45:01.379Z,101439.44
2023-05-24T01:47:39.523Z,101436.47
2023-05-24T01:50:14.000Z,101447.44
2023-05-24T01:52:44.021Z,101442.19
2023-05-24T01:55:13.597Z,101441.09
2023-05-24T01:57:43.597Z,101432.22
2023-05-24T02:00:14.896Z,101432.97
2023-05-24T02:02:41.867Z,101430.22
2023-05-24T02:05:10.485Z,101434.47
2023-05-24T02:07:37.132Z,101434.75
2023-05-24T02:10:05.080Z,101437.31
2023-05-24T02:12:31.862Z,101440.69
2023-05-24T02:14:58.550Z,101437.69
2023-05-24T02:17:26.997Z,101434.44
2023-05-24T02:19:53.862Z,101434.81
2023-05-24T02:22:20.812Z,101443.25
2023-05-24T02:24:47.635Z,101437.56
2023-05-24T02:27:15.320Z,101429.47
2023-05-24T02:29:42.130Z,101435.88
2023-05-24T02:32:09.036Z,101435.88
2023-05-24T02:34:37.042Z,101431.94
2023-05-24T02:37:03.856Z,101433.31
2023-05-24T02:39:30.627Z,101433.66
2023-05-24T02:41:57.835Z,101424.22
2023-05-24T02:44:24.538Z,101423.19
2023-05-24T02:46:51.167Z,101421.44
2023-05-24T02:49:17.897Z,101417.19
2023-05-24T02:51:45.911Z,101422.56
2023-05-24T02:54:12.712Z,101427.22
2023-05-24T02:56:39.345Z,101420.72
2023-05-24T02:59:05.980Z,101423.69
2023-05-24T03:01:33.391Z,101418.31
2023-05-24T03:04:00.323Z,101415.00
2023-05-24T03:06:26.998Z,101410.75
2023-05-24T03:08:55.186Z,101417.38
2023-05-24T03:11:22.438Z,101412.94
2023-05-24T03:13:49.207Z,101413.59
2023-05-24T03:16:16.104Z,101403.84
2023-05-24T03:18:42.918Z,101404.75
2023-05-24T03:21:09.630Z,101417.38
2023-05-24T03:23:36.504Z,101411.03
2023-05-24T03:26:04.555Z,101412.72
2023-05-24T03:28:31.199Z,101407.25
2023-05-24T03:30:58.158Z,101409.28
2023-05-24T03:33:24.897Z,101412.94
2023-05-24T03:35:51.585Z,101407.06
2023-05-24T03:38:18.598Z,101406.78
2023-05-24T03:40:45.360Z,101402.56
2023-05-24T03:43:13.521Z,101412.19
2023-05-24T03:45:40.432Z,101419.47
2023-05-24T03:48:07.208Z,101415.09
2023-05-24T03:50:34.067Z,101408.47
2023-05-24T03:53:00.825Z,101410.66
2023-05-24T03:55:27.487Z,101400.47
2023-05-24T03:57:54.092Z,101402.19
2023-05-24T04:00:22.389Z,101400.00
2023-05-24T04:02:49.268Z,101405.22
2023-05-24T04:05:16.083Z,101415.22
2023-05-24T04:07:42.768Z,101411.63
2023-05-24T04:10:09.899Z,101412.00
2023-05-24T04:12:36.540Z,101419.44
2023-05-24T04:15:03.777Z,101410.66
2023-05-24T04:17:31.938Z,101420.72
2023-05-24T04:19:58.646Z,101425.16
2023-05-24T04:22:25.874Z,101421.63
2023-05-24T04:24:52.753Z,101436.38
2023-05-24T04:27:19.666Z,101437.06
2023-05-24T04:29:46.354Z,101438.25
2023-05-24T04:32:12.954Z,101434.88
2023-05-24T04:34:41.069Z,101429.91
2023-05-24T04:37:08.374Z,101430.03
2023-05-24T04:39:35.067Z,101426.72
2023-05-24T04:42:01.744Z,101438.59
2023-05-24T04:44:28.723Z,101432.81
2023-05-24T04:46:55.499Z,101438.78
2023-05-24T04:49:22.175Z,101441.25
2023-05-24T04:51:50.579Z,101445.41
2023-05-24T04:54:17.238Z,101446.63
2023-05-24T04:56:43.825Z,101441.09
2023-05-24T04:59:10.507Z,101438.59
2023-05-24T05:01:37.309Z,101434.38
2023-05-24T05:04:04.004Z,101447.91
2023-05-24T05:06:30.686Z,101449.13
2023-05-24T05:08:58.810Z,101451.66
2023-05-24T05:11:25.496Z,101462.69
2023-05-24T05:13:52.782Z,101459.00
2023-05-24T05:16:19.522Z,101461.06
2023-05-24T05:18:46.163Z,101462.06
2023-05-24T05:21:12.875Z,101455.19
2023-05-24T05:23:39.547Z,101453.03
2023-05-24T05:26:07.665Z,101458.41
2023-05-24T05:28:34.365Z,101459.69
2023-05-24T05:31:01.271Z,101457.59
2023-05-24T05:33:27.966Z,101465.84
2023-05-24T05:35:55.023Z,101465.41
2023-05-24T05:38:21.909Z,101472.63
2023-05-24T05:40:48.551Z,101471.78
2023-05-24T05:43:16.645Z,101470.84
2023-05-24T05:45:43.294Z,101474.59
2023-05-24T05:48:10.024Z,101477.56
2023-05-24T05:50:36.740Z,101474.44
2023-05-24T05:53:03.338Z,101466.78
2023-05-24T05:55:29.946Z,101465.53
2023-05-24T05:57:56.645Z,101462.41
2023-05-24T06:00:24.819Z,101456.00
2023-05-24T06:02:51.612Z,101455.41
2023-05-24T06:05:19.007Z,101471.13
2023-05-24T06:07:45.682Z,101475.81
2023-05-24T06:10:12.305Z,101468.16
2023-05-24T06:12:38.978Z,101480.63
2023-05-24T06:15:06.828Z,101484.72
2023-05-24T06:17:37.141Z,101482.59
2023-05-24T06:20:04.498Z,101475.16
2023-05-24T06:22:31.130Z,101486.56
2023-05-24T06:24:57.847Z,101484.44
2023-05-24T06:27:24.646Z,101474.28
2023-05-24T06:29:51.356Z,101482.31
2023-05-24T06:32:18.052Z,101475.38
2023-05-24T06:34:46.812Z,101486.56
2023-05-24T06:37:13.437Z,101481.06
2023-05-24T06:39:40.071Z,101487.56
2023-05-24T06:42:07.212Z,101478.13
2023-05-24T06:44:34.027Z,101489.16
2023-05-24T06:47:01.243Z,101491.97
2023-05-24T06:49:28.313Z,101494.25
2023-05-24T06:51:56.369Z,101493.34
2023-05-24T06:54:22.977Z,101495.50
2023-05-24T06:56:49.754Z,101489.00
2023-05-24T06:59:16.429Z,101491.34
2023-05-24T07:01:43.230Z,101493.56
2023-05-24T07:04:10.222Z,101489.66
2023-05-24T07:06:39.620Z,101491.09
2023-05-24T07:09:07.592Z,101494.72
2023-05-24T07:11:34.661Z,101505.16
2023-05-24T07:14:01.367Z,101505.53
2023-05-24T07:16:28.190Z,101514.53
2023-05-24T07:18:55.643Z,101518.03
2023-05-24T07:21:22.294Z,101503.50
2023-05-24T07:23:49.701Z,101512.81
2023-05-24T07:26:18.234Z,101517.81
2023-05-24T07:28:44.966Z,101514.06
2023-05-24T07:31:11.997Z,101504.03
2023-05-24T07:33:39.530Z,101491.78
2023-05-24T07:36:06.603Z,101497.31
2023-05-24T07:38:33.354Z,101504.31
2023-05-24T07:41:01.704Z,101501.66
2023-05-24T07:43:29.784Z,101509.31
2023-05-24T07:45:56.439Z,101509.81
2023-05-24T07:48:23.888Z,101504.97
2023-05-24T07:50:51.577Z,101519.69
2023-05-24T07:53:18.227Z,101523.41
2023-05-24T07:55:45.405Z,101518.91
2023-05-24T07:58:14.502Z,101523.50
2023-05-24T08:00:42.654Z,101513.41
2023-05-24T08:03:09.530Z,101517.50
2023-05-24T08:05:36.397Z,101529.78
2023-05-24T08:08:03.041Z,101530.03
2023-05-24T08:10:29.717Z,101528.53
2023-05-24T08:12:56.365Z,101531.91
2023-05-24T08:15:23.118Z,101515.50
2023-05-24T08:17:51.774Z,101520.81
2023-05-24T08:20:18.575Z,101532.81
2023-05-24T08:22:45.289Z,101537.00
2023-05-24T08:25:12.261Z,101543.44
2023-05-24T08:27:38.863Z,101531.28
2023-05-24T08:30:07.006Z,101532.72
2023-05-24T08:32:33.763Z,101529.81
2023-05-24T08:35:18.260Z,101533.13
2023-05-24T08:37:47.419Z,101539.63
2023-05-24T08:40:14.155Z,101536.34
2023-05-24T08:42:41.647Z,101530.81
2023-05-24T08:45:11.266Z,101531.56
2023-05-24T08:47:38.952Z,101531.97
2023-05-24T08:50:08.576Z,101528.41
2023-05-24T08:52:36.854Z,101530.47
2023-05-24T08:55:05.216Z,101535.44
2023-05-24T08:57:32.920Z,101534.13
2023-05-24T08:59:59.733Z,101533.78
2023-05-24T09:02:27.187Z,101539.41
2023-05-24T09:04:54.481Z,101523.72
2023-05-24T09:07:23.241Z,101515.78
2023-05-24T09:09:56.973Z,101522.31
2023-05-24T09:12:36.154Z,101522.91
2023-05-24T09:15:06.212Z,101523.91
2023-05-24T09:17:34.263Z,101517.81
2023-05-24T09:20:01.082Z,101528.44
2023-05-24T09:22:29.753Z,101521.97
2023-05-24T09:24:58.496Z,101517.88
2023-05-24T09:27:25.482Z,101516.97
2023-05-24T09:29:52.203Z,101521.72
2023-05-24T09:32:20.439Z,101513.50
2023-05-24T09:34:47.580Z,101519.41
2023-05-24T09:37:15.802Z,101517.41
2023-05-24T09:39:44.615Z,101507.19
2023-05-24T09:42:15.159Z,101507.59
2023-05-24T09:44:41.858Z,101511.59
2023-05-24T09:47:08.593Z,101502.97
2023-05-24T09:49:37.183Z,101511.44
2023-05-24T09:52:04.713Z,101513.09
2023-05-24T09:54:32.855Z,101514.88
2023-05-24T09:57:03.442Z,101505.66
2023-05-24T09:59:33.142Z,101506.81
2023-05-24T10:02:08.255Z,101502.28
2023-05-24T10:04:35.029Z,101512.25
2023-05-24T10:07:02.097Z,101513.44
2023-05-24T10:09:29.500Z,101507.13
2023-05-24T10:11:56.686Z,101510.75
2023-05-24T10:14:25.954Z,101507.75
2023-05-24T10:16:52.773Z,101505.53
2023-05-24T10:19:19.661Z,101523.59
2023-05-24T10:21:46.650Z,101516.44
2023-05-24T10:24:14.133Z,101517.66
2023-05-24T10:26:41.743Z,101511.53
2023-05-24T10:29:17.523Z,101516.91
2023-05-24T10:31:46.443Z,101522.50
2023-05-24T10:34:13.928Z,101516.75
2023-05-24T10:36:40.867Z,101512.97
2023-05-24T10:39:09.655Z,101508.88
2023-05-24T10:41:39.473Z,101497.25
2023-05-24T10:44:11.168Z,101502.94
2023-05-24T10:47:11.741Z,101502.56
2023-05-24T10:49:39.997Z,101501.22
2023-05-24T10:52:10.691Z,101503.22
2023-05-24T10:54:37.455Z,101504.88
2023-05-24T10:57:06.211Z,101514.22
2023-05-24T10:59:34.989Z,101500.28
2023-05-24T11:02:02.646Z,101505.59
2023-05-24T11:04:37.648Z,101520.53
2023-05-24T11:07:06.056Z,101518.34
2023-05-24T11:09:33.180Z,101513.31
2023-05-24T11:12:02.724Z,101513.91
2023-05-24T11:14:31.035Z,101509.94
2023-05-24T11:16:59.718Z,101513.19
2023-05-24T11:19:31.369Z,101502.28
2023-05-24T11:22:00.049Z,101508.63
2023-05-24T11:24:27.714Z,101506.47
2023-05-24T11:26:54.832Z,101498.16
2023-05-24T11:29:21.546Z,101506.50
2023-05-24T11:31:48.987Z,101505.31
2023-05-24T11:34:15.619Z,101507.84
2023-05-24T11:36:42.807Z,101510.44
2023-05-24T11:39:10.974Z,101520.00
2023-05-24T11:41:38.817Z,101515.22
2023-05-24T11:44:07.163Z,101511.78
2023-05-24T11:46:33.999Z,101513.56
2023-05-24T11:49:00.756Z,101512.84
2023-05-24T11:51:28.149Z,101513.44
2023-05-24T11:53:55.987Z,101514.13
2023-05-24T11:56:24.387Z,101518.19
2023-05-24T11:58:55.993Z,101532.22
2023-05-24T12:01:26.575Z,101528.41
2023-05-24T12:03:53.764Z,101523.19
2023-05-24T12:06:21.154Z,101533.97
2023-05-24T12:08:48.403Z,101516.75
2023-05-24T12:11:15.434Z,101530.97
2023-05-24T12:13:43.795Z,101536.41
2023-05-24T12:16:11.929Z,101533.19
2023-05-24T12:18:41.471Z,101523.66
2023-05-24T12:21:12.574Z,101526.13
2023-05-24T12:23:40.000Z,101538.22
2023-05-24T12:26:06.621Z,101538.88
2023-05-24T12:28:34.057Z,101530.59
2023-05-24T12:31:02.601Z,101528.50
2023-05-24T12:33:29.238Z,101526.06
2023-05-24T12:35:56.463Z,101526.53
2023-05-24T12:38:24.267Z,101513.50
2023-05-24T12:41:03.869Z,101515.69
2023-05-24T12:43:37.817Z,101533.75
2023-05-24T12:46:05.993Z,101525.84
2023-05-24T12:48:32.643Z,101526.34
2023-05-24T12:50:59.478Z,101530.91
2023-05-24T12:53:26.164Z,101527.06
2023-05-24T12:55:53.232Z,101526.13
2023-05-24T12:58:19.873Z,101526.34
2023-05-24T13:00:46.711Z,101523.09
2023-05-24T13:03:15.034Z,101524.25
2023-05-24T13:05:41.839Z,101516.16
2023-05-24T13:08:09.787Z,101507.28
2023-05-24T13:10:36.687Z,101510.81
2023-05-24T13:13:03.405Z,101520.03
2023-05-24T13:15:29.989Z,101517.94
2023-05-24T13:17:56.977Z,101512.50
2023-05-24T13:20:25.606Z,101519.63
2023-05-24T13:22:52.307Z,101520.06
2023-05-24T13:25:19.117Z,101525.91
2023-05-24T13:27:46.049Z,101521.47
2023-05-24T13:30:13.200Z,101521.31
2023-05-24T13:32:41.289Z,101522.59
2023-05-24T13:35:08.962Z,101521.63
2023-05-24T13:37:37.308Z,101519.75
2023-05-24T13:40:04.774Z,101525.59
2023-05-24T13:42:31.774Z,101517.59
2023-05-24T13:44:58.561Z,101521.59
2023-05-24T13:47:38.673Z,101518.66
2023-05-24T13:50:07.420Z,101533.13
2023-05-24T13:52:34.307Z,101538.50
2023-05-24T13:55:03.964Z,101522.06
2023-05-24T13:57:46.873Z,101522.28
2023-05-24T14:00:18.444Z,101516.00
2023-05-24T14:02:45.433Z,101517.47
2023-05-24T14:05:24.809Z,101509.59
2023-05-24T14:07:53.090Z,101516.25
2023-05-24T14:10:21.875Z,101519.28
2023-05-24T14:12:59.614Z,101507.72
2023-05-24T14:15:36.058Z,101509.91
2023-05-24T14:18:03.049Z,101502.59
2023-05-24T14:20:29.705Z,101509.69
2023-05-24T14:22:58.370Z,101513.78
2023-05-24T14:25:26.611Z,101507.81
2023-05-24T14:27:53.254Z,101512.47
2023-05-24T14:30:20.023Z,101504.22
2023-05-24T14:32:46.721Z,101503.50
2023-05-24T14:35:13.416Z,101504.09
2023-05-24T14:37:40.294Z,101511.69
2023-05-24T14:40:08.109Z,101507.56
2023-05-24T14:42:36.279Z,101519.31
2023-05-24T14:45:03.004Z,101524.19
2023-05-24T14:47:30.014Z,101516.28
2023-05-24T14:49:56.686Z,101512.34
2023-05-24T14:52:23.423Z,101512.06
2023-05-24T14:54:50.037Z,101512.16
2023-05-24T14:57:16.736Z,101509.88
2023-05-24T14:59:44.952Z,101507.56
2023-05-24T15:02:11.673Z,101510.34
2023-05-24T15:04:38.259Z,101515.19
2023-05-24T15:07:05.490Z,101501.88
2023-05-24T15:09:32.155Z,101513.69
2023-05-24T15:11:58.788Z,101511.16
2023-05-24T15:14:25.515Z,101510.78
2023-05-24T15:16:53.566Z,101518.78
2023-05-24T15:19:20.246Z,101520.66
2023-05-24T15:21:47.111Z,101522.81
2023-05-24T15:24:13.771Z,101522.44
2023-05-24T15:26:40.554Z,101518.25
2023-05-24T15:29:07.313Z,101519.31
2023-05-24T15:31:34.051Z,101519.63
2023-05-24T15:34:02.309Z,101518.09
2023-05-24T15:36:29.067Z,101525.59
2023-05-24T15:38:55.672Z,101524.03
2023-05-24T15:41:22.593Z,101527.81
2023-05-24T15:43:51.304Z,101525.16
2023-05-24T15:46:21.077Z,101526.38
2023-05-24T15:48:47.694Z,101519.94
2023-05-24T15:53:45.449Z,101513.22
2023-05-24T15:56:12.025Z,101525.88
2023-05-24T15:58:38.826Z,101518.72
2023-05-24T16:01:06.032Z,101520.09
2023-05-24T16:03:32.862Z,101512.66
2023-05-24T16:05:59.734Z,101508.75
2023-05-24T16:08:28.109Z,101521.78
2023-05-24T16:10:55.031Z,101519.03
2023-05-24T16:13:21.937Z,101529.28
2023-05-24T16:15:48.976Z,101520.72
2023-05-24T16:18:15.748Z,101528.94
2023-05-24T16:20:43.017Z,101524.78
2023-05-24T16:23:09.881Z,101522.47
2023-05-24T16:25:37.830Z,101519.94
2023-05-24T16:28:04.846Z,101512.75
2023-05-24T16:30:31.493Z,101520.56
2023-05-24T16:32:58.376Z,101530.75
2023-05-24T16:35:25.505Z,101539.97
2023-05-24T16:37:53.484Z,101526.31
2023-05-24T16:40:20.215Z,101517.25
2023-05-24T16:42:48.494Z,101523.97
2023-05-24T16:45:15.365Z,101517.38
2023-05-24T16:47:42.028Z,101515.97
2023-05-24T16:50:09.898Z,101515.84
2023-05-24T16:52:36.631Z,101513.53
2023-05-24T16:55:03.638Z,101512.94
2023-05-24T16:57:30.434Z,101514.78
2023-05-24T16:59:58.676Z,101514.03
2023-05-24T17:02:25.430Z,101507.38
2023-05-24T17:04:52.212Z,101515.88
2023-05-24T17:07:18.905Z,101513.63
2023-05-24T17:09:47.823Z,101508.53
2023-05-24T17:12:15.916Z,101517.94
2023-05-24T17:14:42.570Z,101523.97
2023-05-24T17:17:11.945Z,101519.00
2023-05-24T17:19:38.679Z,101517.44
2023-05-24T17:22:05.393Z,101512.06
2023-05-24T17:24:32.354Z,101519.06
2023-05-24T17:26:59.004Z,101528.66
2023-05-24T17:29:25.612Z,101526.50
2023-05-24T17:31:52.526Z,101529.34
2023-05-24T17:34:20.658Z,101535.72
2023-05-24T17:36:47.317Z,101521.50
2023-05-24T17:39:13.978Z,101529.56
2023-05-24T17:41:40.733Z,101528.41
2023-05-24T17:44:07.615Z,101536.66
2023-05-24T17:46:36.392Z,101539.34
2023-05-24T17:49:03.950Z,101538.94
2023-05-24T17:51:31.926Z,101538.41
2023-05-24T17:53:58.602Z,101530.53
2023-05-24T17:56:25.277Z,101537.59
2023-05-24T17:58:51.875Z,101536.09
2023-05-24T18:01:18.751Z,101538.56
2023-05-24T18:03:45.578Z,101534.50
2023-05-24T18:06:12.193Z,101550.63
2023-05-24T18:08:40.296Z,101537.56
2023-05-24T18:11:07.268Z,101549.53
2023-05-24T18:13:33.918Z,101540.66
2023-05-24T18:16:00.888Z,101541.09
2023-05-24T18:18:27.712Z,101532.78
2023-05-24T18:20:54.507Z,101538.22
2023-05-24T18:23:22.700Z,101541.50
2023-05-24T18:26:01.090Z,101539.88
2023-05-24T18:28:29.964Z,101537.66
2023-05-24T18:30:56.665Z,101537.66
2023-05-24T18:33:24.469Z,101550.53
2023-05-24T18:35:51.270Z,101542.03
2023-05-24T18:38:17.904Z,101545.03
2023-05-24T18:40:44.630Z,101551.13
2023-05-24T18:43:12.764Z,101548.19
2023-05-24T18:45:39.451Z,101555.13
2023-05-24T18:48:06.185Z,101551.91
2023-05-24T18:50:32.931Z,101533.41
2023-05-24T18:52:59.531Z,101543.28
2023-05-24T18:55:26.319Z,101550.34
2023-05-24T18:57:52.969Z,101555.50
2023-05-24T19:00:20.964Z,101543.06
2023-05-24T19:02:47.669Z,101548.41
2023-05-24T19:05:14.460Z,101549.97
2023-05-24T19:07:41.463Z,101537.91
2023-05-24T19:10:09.039Z,101548.97
2023-05-24T19:12:35.792Z,101538.31
2023-05-24T19:15:02.471Z,101542.94
2023-05-24T19:17:30.576Z,101545.28
2023-05-24T19:19:57.394Z,101542.56
2023-05-24T19:22:24.103Z,101537.59
2023-05-24T19:24:50.778Z,101538.44
2023-05-24T19:27:17.523Z,101546.25
2023-05-24T19:29:44.160Z,101551.31
2023-05-24T19:32:10.842Z,101547.59
2023-05-24T19:34:39.105Z,101545.91
2023-05-24T19:37:05.779Z,101555.72
2023-05-24T19:39:32.400Z,101565.47
2023-05-24T19:41:59.090Z,101558.72
2023-05-24T19:44:26.759Z,101552.56
2023-05-24T19:46:53.391Z,101560.63
2023-05-24T19:49:20.048Z,101563.59
2023-05-24T19:51:48.101Z,101555.28
2023-05-24T19:54:15.013Z,101554.03
2023-05-24T19:56:41.938Z,101562.09
2023-05-24T19:59:08.773Z,101558.31
2023-05-24T20:01:35.513Z,101565.94
2023-05-24T20:04:02.310Z,101560.84
2023-05-24T20:06:29.050Z,101562.13
2023-05-24T20:08:57.067Z,101556.19
2023-05-24T20:11:24.061Z,101556.81
2023-05-24T20:13:50.849Z,101554.69
2023-05-24T20:16:17.648Z,101559.78
2023-05-24T20:18:44.548Z,101568.50
2023-05-24T20:21:11.885Z,101566.16
2023-05-24T20:23:38.495Z,101564.69
2023-05-24T20:26:06.808Z,101564.88
2023-05-24T20:28:33.409Z,101576.75
2023-05-24T20:31:00.069Z,101572.50
2023-05-24T20:33:26.802Z,101570.97
2023-05-24T20:35:53.530Z,101576.75
2023-05-24T20:38:20.264Z,101579.28
2023-05-24T20:40:46.974Z,101590.72
2023-05-24T20:43:14.995Z,101592.19
2023-05-24T20:45:41.870Z,101593.25
2023-05-24T20:48:08.760Z,101595.16
2023-05-24T20:50:35.452Z,101599.41
2023-05-24T20:53:02.061Z,101604.50
2023-05-24T20:55:28.713Z,101601.97
2023-05-24T20:57:55.674Z,101602.16
2023-05-24T21:00:23.709Z,101603.66
2023-05-24T21:02:50.469Z,101601.75
2023-05-24T21:05:17.197Z,101602.16
2023-05-24T21:07:43.837Z,101612.94
2023-05-24T21:10:16.956Z,101615.94
2023-05-24T21:12:43.581Z,101605.31
2023-05-24T21:15:10.743Z,101606.78
2023-05-24T21:17:39.333Z,101606.72
2023-05-24T21:20:06.886Z,101606.94
2023-05-24T21:22:33.594Z,101614.38
2023-05-24T21:25:00.313Z,101605.63
2023-05-24T21:27:26.968Z,101613.88
2023-05-24T21:29:53.680Z,101608.94
2023-05-24T21:32:20.373Z,101604.75
2023-05-24T21:34:48.518Z,101611.59
2023-05-24T21:37:15.313Z,101609.44
2023-05-24T21:39:42.022Z,101615.97
2023-05-24T21:42:08.621Z,101609.41
2023-05-24T21:44:35.482Z,101615.13
2023-05-24T21:47:02.515Z,101615.69
2023-05-24T21:49:29.310Z,101613.59
2023-05-24T21:51:57.342Z,101610.53
2023-05-24T21:54:23.970Z,101615.84
2023-05-24T21:56:51.711Z,101620.50
2023-05-24T21:59:18.753Z,101630.00
2023-05-24T22:01:45.622Z,101624.75
2023-05-24T22:04:12.432Z,101630.06
2023-05-24T22:06:39.380Z,101621.34
2023-05-24T22:09:09.137Z,101621.16
2023-05-24T22:11:35.758Z,101625.78
2023-05-24T22:14:02.627Z,101619.19
2023-05-24T22:16:29.371Z,101623.19
2023-05-24T22:18:56.025Z,101629.81
2023-05-24T22:21:22.828Z,101632.09
2023-05-24T22:23:50.918Z,101631.22
2023-05-24T22:26:18.964Z,101631.38
2023-05-24T22:28:50.966Z,101632.50
2023-05-24T22:31:18.182Z,101627.91
2023-05-24T22:33:44.887Z,101640.03
2023-05-24T22:36:11.554Z,101646.63
2023-05-24T22:38:39.326Z,101644.03
2023-05-24T22:41:06.057Z,101638.94
2023-05-24T22:43:38.314Z,101639.13
2023-05-24T22:46:06.578Z,101638.31
2023-05-24T22:48:34.346Z,101635.22
2023-05-24T22:51:02.165Z,101641.88
2023-05-24T22:53:28.954Z,101652.78
2023-05-24T22:55:56.955Z,101646.31
2023-05-24T22:58:24.401Z,101648.69
2023-05-24T23:00:53.382Z,101648.38
2023-05-24T23:03:20.399Z,101647.53
2023-05-24T23:05:47.191Z,101654.53
2023-05-24T23:08:13.843Z,101651.47
2023-05-24T23:10:41.155Z,101648.97
2023-05-24T23:13:07.812Z,101644.03
2023-05-24T23:15:34.477Z,101642.31
2023-05-24T23:18:02.726Z,101639.97
2023-05-24T23:20:29.545Z,101635.47
2023-05-24T23:22:56.248Z,101622.94
2023-05-24T23:25:23.073Z,101631.22
2023-05-24T23:27:49.734Z,101631.47
2023-05-24T23:30:16.493Z,101625.94
2023-05-24T23:32:43.688Z,101631.22
2023-05-24T23:35:11.663Z,101629.50
2023-05-24T23:37:38.266Z,101629.91
2023-05-24T23:40:06.315Z,101642.78
2023-05-24T23:42:33.003Z,101639.44
2023-05-24T23:44:59.716Z,101639.44
2023-05-24T23:47:26.642Z,101640.34
2023-05-24T23:49:53.304Z,101644.63
2023-05-24T23:52:21.314Z,101645.16
2023-05-24T23:54:48.054Z,101653.16
2023-05-24T23:57:14.786Z,101657.81
2023-05-24T23:59:41.431Z,101660.88
